KFSM/FSM METAR and TAF weather

Enter ICAO airport designator
Station Type Date Time Source
KFSM METAR 2019/12/08 14:06 UTC NOAA

KFSM 081406Z 09009KT 1SM R25/5000V5500FT BR OVC002 04/04 A3003 RMK AO2 T00440044


Station Type Date Time Source
KFSM Decoded METAR 2019/12/08 14:06 UTC NOAA

FORT SMITH REGIONAL AIRPORT, AR, United States (KFSM) 35-20N 94-22W 140M
Dec 08, 2019 - 09:06 AM EST / 2019.12.08 1406 UTC
Wind: from the E (090 degrees) at 10 MPH (9 KT) (direction variable):0
Visibility: 1 mile(s):0
Sky conditions: overcast
Weather: mist
Temperature: 39.9 F (4.4 C)
Dew Point: 39.9 F (4.4 C)
Relative Humidity: 100%
Pressure (altimeter): 30.03 in. Hg (1016 hPa)
ob: KFSM 081406Z 09009KT 1SM R25/5000V5500FT BR OVC002 04/04 A3003 RMK AO2 T00440044
cycle: 14

Station Type Date Time Source
KFSM TAF 2019/12/08 14:57 UTC NOAA

TAF
AMD KFSM 081354Z 0814/0912 07007KT 1/2SM FG OVC001
TEMPO 0814/0816 3SM BR BKN003
FM081600 14009KT P6SM OVC020

Example: see airport list